Time;durP1;ratioP1;P1;durP2;ratioP2;P2;SDS_P1;SDS_P2;PMS_P1;PMS_P2;Temp;Humidity;BMP_temperature;BMP_pressure;BME280_temperature;BME280_humidity;BME280_pressure;Samples;Min_cycle;Max_cycle;Signal;HPM_P1;HPM_P2
2022/05/29 00:00:46;;;;;;;31.83;15.43;;;28.50;99.90;;;;;;4188655;28;20048;-68
2022/05/29 00:02:59;;;;;;;28.73;15.85;;;28.60;99.90;;;;;;4157632;28;20096;-67
2022/05/29 00:05:16;;;;;;;29.02;15.30;;;28.60;99.90;;;;;;4124061;28;20042;-68
2022/05/29 00:07:26;;;;;;;30.58;15.57;;;28.60;99.90;;;;;;4156520;28;20046;-70
2022/05/29 00:09:35;;;;;;;27.45;15.98;;;28.60;99.90;;;;;;4184297;28;20116;-69
2022/05/29 00:11:43;;;;;;;23.15;14.48;;;28.70;99.90;;;;;;4165458;28;20063;-69
2022/05/29 00:13:48;;;;;;;21.75;14.30;;;28.60;99.90;;;;;;4160010;28;20049;-69
2022/05/29 00:15:53;;;;;;;27.77;15.32;;;28.70;99.90;;;;;;4160438;28;20053;-69
2022/05/29 00:18:01;;;;;;;25.73;14.57;;;28.80;99.90;;;;;;4159276;28;20038;-69
2022/05/29 00:20:10;;;;;;;20.48;13.45;;;28.80;99.90;;;;;;4143873;28;20121;-68
2022/05/29 00:22:26;;;;;;;25.58;13.73;;;28.90;99.90;;;;;;4160083;28;20065;-68
2022/05/29 00:24:36;;;;;;;26.42;13.15;;;28.90;99.90;;;;;;4162874;28;20046;-69
2022/05/29 00:26:47;;;;;;;23.05;12.48;;;29.00;99.90;;;;;;4166459;28;20049;-69
2022/05/29 00:28:53;;;;;;;24.70;13.73;;;29.10;99.90;;;;;;4159189;28;20055;-69
2022/05/29 00:31:12;;;;;;;27.10;14.25;;;29.10;99.90;;;;;;4158573;28;20764;-69
2022/05/29 00:33:23;;;;;;;22.35;13.95;;;29.10;99.90;;;;;;4175092;28;20077;-69
2022/05/29 00:35:33;;;;;;;26.60;13.98;;;29.20;99.90;;;;;;4161878;28;20107;-69
2022/05/29 00:37:42;;;;;;;21.55;13.18;;;29.10;99.90;;;;;;4159714;28;20128;-71
2022/05/29 00:39:49;;;;;;;21.60;13.32;;;29.20;99.90;;;;;;4164103;28;20137;-69
2022/05/29 00:41:59;;;;;;;26.77;13.25;;;29.30;99.90;;;;;;4102741;28;20086;-69
2022/05/29 00:44:26;;;;;;;24.17;13.75;;;29.40;99.90;;;;;;4172096;28;20052;-69
2022/05/29 00:46:35;;;;;;;28.00;14.23;;;29.40;99.90;;;;;;4161507;28;20473;-68
2022/05/29 00:48:41;;;;;;;26.45;13.57;;;29.50;99.90;;;;;;4164633;28;20037;-68
2022/05/29 00:50:51;;;;;;;28.58;13.70;;;29.60;99.90;;;;;;4167938;28;20123;-68
2022/05/29 00:52:57;;;;;;;23.00;12.80;;;29.60;99.90;;;;;;4167373;28;20424;-68
2022/05/29 00:55:15;;;;;;;25.90;13.68;;;29.60;99.90;;;;;;4156038;28;20045;-68
2022/05/29 00:57:36;;;;;;;28.17;13.45;;;29.70;99.90;;;;;;4144777;28;20038;-67
2022/05/29 00:59:42;;;;;;;28.60;13.23;;;29.70;99.90;;;;;;4163465;28;20055;-67
2022/05/29 01:01:51;;;;;;;26.70;14.32;;;29.70;99.90;;;;;;4162607;28;20052;-67
2022/05/29 01:03:59;;;;;;;29.90;14.02;;;29.80;99.90;;;;;;4164419;28;20510;-68
2022/05/29 01:06:06;;;;;;;22.70;12.82;;;29.90;99.90;;;;;;4164349;28;20148;-66
2022/05/29 01:08:23;;;;;;;23.42;13.73;;;29.90;99.90;;;;;;4156555;28;20067;-68
2022/05/29 01:10:52;;;;;;;26.10;13.07;;;29.90;99.90;;;;;;4154982;28;20049;-68
2022/05/29 01:13:20;;;;;;;24.02;13.50;;;29.90;99.90;;;;;;4139594;28;20068;-68
2022/05/29 01:15:50;;;;;;;27.33;12.90;;;29.90;99.90;;;;;;4165618;28;20064;-70
2022/05/29 01:18:13;;;;;;;24.90;13.60;;;30.00;99.90;;;;;;4156433;28;20104;-68
2022/05/29 01:20:35;;;;;;;24.40;13.05;;;30.10;99.90;;;;;;4155176;28;20500;-68
2022/05/29 01:23:07;;;;;;;21.50;12.60;;;30.20;99.90;;;;;;4154801;28;20052;-68
2022/05/29 01:25:29;;;;;;;23.58;12.05;;;30.20;99.90;;;;;;4157661;28;20514;-68
2022/05/29 01:27:50;;;;;;;23.50;12.43;;;30.30;99.90;;;;;;4156772;28;20053;-68
2022/05/29 01:30:18;;;;;;;24.35;12.52;;;30.30;99.90;;;;;;4156624;28;20045;-68
2022/05/29 01:32:55;;;;;;;21.45;12.20;;;30.30;99.90;;;;;;4170872;28;20053;-68
2022/05/29 01:35:14;;;;;;;19.33;12.45;;;30.30;99.90;;;;;;4121556;28;20070;-68
2022/05/29 01:37:26;;;;;;;24.20;11.70;;;30.20;99.90;;;;;;4137597;28;20720;-68
2022/05/29 01:39:34;;;;;;;24.42;12.85;;;30.20;99.90;;;;;;4132102;28;20104;-68
2022/05/29 01:41:41;;;;;;;26.17;12.43;;;30.20;99.90;;;;;;4145798;28;20080;-68
2022/05/29 01:44:09;;;;;;;27.15;13.35;;;30.30;99.90;;;;;;4154064;28;20045;-67
2022/05/29 01:46:29;;;;;;;23.02;12.18;;;30.30;99.90;;;;;;4155427;28;20053;-68
2022/05/29 01:48:45;;;;;;;19.48;11.57;;;30.40;99.90;;;;;;4140250;28;20053;-68
2022/05/29 01:50:56;;;;;;;21.08;11.60;;;30.50;99.90;;;;;;4154921;28;20053;-67
2022/05/29 01:53:23;;;;;;;18.85;10.68;;;30.50;99.90;;;;;;4160412;28;20079;-68
2022/05/29 01:55:36;;;;;;;20.67;11.85;;;30.60;99.90;;;;;;4150856;28;20597;-68
2022/05/29 01:57:44;;;;;;;22.92;13.13;;;30.60;99.90;;;;;;4118377;28;20042;-68
2022/05/29 01:59:56;;;;;;;19.83;12.40;;;30.50;99.90;;;;;;4153957;28;21763;-68
2022/05/29 02:02:08;;;;;;;21.92;11.40;;;30.50;99.90;;;;;;4124672;28;20048;-68
2022/05/29 02:04:20;;;;;;;24.38;13.07;;;30.60;99.90;;;;;;4170550;28;20044;-68
2022/05/29 02:07:47;;;;;;;24.85;11.52;;;30.70;99.90;;;;;;4158010;28;20543;-68
2022/05/29 02:09:06;;;;;;;23.92;12.00;;;30.80;99.90;;;;;;4167934;28;20184;-68
2022/05/29 02:11:22;;;;;;;22.15;12.05;;;30.90;99.90;;;;;;4166283;28;20054;-68
2022/05/29 02:13:46;;;;;;;22.95;11.55;;;30.90;99.90;;;;;;4164533;28;20050;-68
2022/05/29 02:15:58;;;;;;;25.80;11.45;;;31.00;99.90;;;;;;4155382;28;20096;-68
2022/05/29 02:18:05;;;;;;;27.40;12.43;;;31.10;99.90;;;;;;4137785;28;20042;-68
2022/05/29 02:20:30;;;;;;;22.33;11.63;;;31.10;99.90;;;;;;4163979;28;20041;-68
2022/05/29 02:22:40;;;;;;;21.35;11.73;;;31.00;99.90;;;;;;4125263;28;20136;-68
2022/05/29 02:24:50;;;;;;;24.58;12.45;;;31.00;99.90;;;;;;4154699;28;20111;-68
2022/05/29 02:27:16;;;;;;;23.92;12.98;;;30.90;99.90;;;;;;4137811;28;20042;-68
2022/05/29 02:29:23;;;;;;;23.38;12.57;;;31.00;99.90;;;;;;4155107;28;20658;-68
2022/05/29 02:31:50;;;;;;;23.42;11.68;;;31.00;99.90;;;;;;4143026;28;20937;-69
2022/05/29 02:34:17;;;;;;;22.65;12.15;;;31.10;99.90;;;;;;4156088;28;20038;-68
2022/05/29 02:36:24;;;;;;;24.25;12.02;;;31.20;99.90;;;;;;4153541;28;20498;-67
2022/05/29 02:38:35;;;;;;;24.60;12.63;;;31.20;99.90;;;;;;4154230;28;20045;-67
2022/05/29 02:40:48;;;;;;;22.40;12.00;;;31.20;99.90;;;;;;4153622;28;20042;-68
2022/05/29 02:43:08;;;;;;;20.23;11.68;;;31.30;99.90;;;;;;4164465;28;20523;-68
2022/05/29 02:45:39;;;;;;;26.00;12.48;;;31.40;99.90;;;;;;4155372;28;20055;-68
2022/05/29 02:47:48;;;;;;;23.70;13.32;;;31.40;99.90;;;;;;4154802;28;20095;-68
2022/05/29 02:50:21;;;;;;;28.27;13.27;;;31.40;99.90;;;;;;4156292;28;20045;-68
2022/05/29 02:52:28;;;;;;;25.35;12.98;;;31.50;99.90;;;;;;4146707;28;20504;-68
2022/05/29 02:54:35;;;;;;;25.58;12.13;;;31.50;99.90;;;;;;4153980;28;20049;-67
2022/05/29 02:56:43;;;;;;;25.42;12.65;;;31.60;99.90;;;;;;4105239;28;20105;-68
2022/05/29 02:58:50;;;;;;;23.25;12.57;;;31.80;99.90;;;;;;4153433;28;20041;-68
2022/05/29 03:01:20;;;;;;;25.88;12.35;;;31.70;99.90;;;;;;4145056;28;20041;-67
2022/05/29 03:03:50;;;;;;;24.17;12.25;;;31.80;99.90;;;;;;4155089;28;20041;-68
2022/05/29 03:06:07;;;;;;;22.88;11.82;;;31.90;99.90;;;;;;4155279;28;20038;-67
2022/05/29 03:08:26;;;;;;;25.15;12.32;;;32.00;99.90;;;;;;4155411;28;20056;-67
2022/05/29 03:10:41;;;;;;;27.38;12.18;;;32.20;99.90;;;;;;4153864;28;20101;-68
2022/05/29 03:13:05;;;;;;;26.17;12.02;;;32.10;99.90;;;;;;4139715;28;20133;-67
2022/05/29 03:15:13;;;;;;;24.33;11.98;;;32.40;99.90;;;;;;4169284;28;20048;-68
2022/05/29 03:17:28;;;;;;;18.17;11.10;;;32.50;99.90;;;;;;4156347;28;20049;-67
2022/05/29 03:19:47;;;;;;;20.67;10.57;;;32.60;99.90;;;;;;4154593;28;20756;-68
2022/05/29 03:22:12;;;;;;;17.50;11.07;;;32.70;99.80;;;;;;4157124;28;20888;-67
2022/05/29 03:24:39;;;;;;;25.10;11.32;;;32.70;99.70;;;;;;4169043;28;20048;-67
2022/05/29 03:26:52;;;;;;;24.92;11.70;;;32.70;99.80;;;;;;4154033;28;20095;-68
2022/05/29 03:29:01;;;;;;;21.33;10.85;;;32.90;99.70;;;;;;4154910;28;20052;-67
2022/05/29 03:31:14;;;;;;;23.85;12.25;;;32.90;99.10;;;;;;4156736;28;20049;-68
2022/05/29 03:33:39;;;;;;;21.75;11.85;;;32.70;98.90;;;;;;4158761;28;20052;-69
2022/05/29 03:35:54;;;;;;;24.75;11.75;;;32.80;99.20;;;;;;4138901;28;20056;-68
2022/05/29 03:38:04;;;;;;;18.35;11.32;;;32.80;99.00;;;;;;4155539;28;20847;-68
2022/05/29 03:40:11;;;;;;;22.05;11.48;;;32.80;98.90;;;;;;4154778;28;20475;-70
2022/05/29 03:42:16;;;;;;;24.13;11.63;;;32.90;98.70;;;;;;4153837;28;20676;-69
2022/05/29 03:44:25;;;;;;;23.35;11.75;;;32.80;98.40;;;;;;4154990;28;20060;-68
2022/05/29 03:46:31;;;;;;;20.23;10.95;;;33.00;98.40;;;;;;4160161;28;20050;-68
2022/05/29 03:48:36;;;;;;;23.75;11.48;;;33.00;98.40;;;;;;4155104;28;20416;-68
2022/05/29 03:50:42;;;;;;;25.42;11.50;;;33.00;98.50;;;;;;4152249;28;20052;-68
2022/05/29 03:52:49;;;;;;;21.65;10.90;;;33.10;98.10;;;;;;4138349;28;20057;-68
2022/05/29 03:54:54;;;;;;;17.60;11.23;;;33.10;98.30;;;;;;4155897;28;20037;-67
2022/05/29 03:57:03;;;;;;;27.25;11.73;;;33.20;98.10;;;;;;4154846;28;20053;-68
2022/05/29 03:59:11;;;;;;;20.23;11.05;;;33.30;98.30;;;;;;4154577;28;20072;-68
2022/05/29 04:01:17;;;;;;;21.20;11.15;;;33.50;97.90;;;;;;4153964;28;20056;-70
2022/05/29 04:03:22;;;;;;;23.30;10.75;;;33.60;97.50;;;;;;4154718;28;20073;-69
2022/05/29 04:05:30;;;;;;;21.75;10.48;;;33.60;97.00;;;;;;4153434;28;20041;-69
2022/05/29 04:12:14;;;;;;;20.17;11.10;;;33.40;97.60;;;;;;4157088;28;20052;-68
2022/05/29 04:14:20;;;;;;;23.30;11.07;;;33.30;97.60;;;;;;4158908;28;20045;-68
2022/05/29 04:16:27;;;;;;;27.13;11.93;;;33.20;97.70;;;;;;4165164;28;20752;-69
2022/05/29 04:18:34;;;;;;;21.52;11.32;;;33.20;97.50;;;;;;4165402;28;20831;-69
2022/05/29 04:20:40;;;;;;;20.90;10.70;;;33.10;97.10;;;;;;4147523;28;20057;-68
2022/05/29 04:22:47;;;;;;;24.23;10.52;;;33.20;96.90;;;;;;4157884;28;20236;-69
2022/05/29 04:24:56;;;;;;;20.88;10.40;;;33.10;96.80;;;;;;4162786;28;20041;-68
2022/05/29 04:27:01;;;;;;;19.65;10.80;;;33.30;95.80;;;;;;4157341;28;20468;-68
2022/05/29 04:29:07;;;;;;;18.38;9.50;;;33.30;96.50;;;;;;4155638;28;20060;-69
2022/05/29 04:31:13;;;;;;;19.30;9.45;;;33.50;95.90;;;;;;4161869;28;20132;-69
2022/05/29 04:33:19;;;;;;;21.73;10.52;;;33.70;95.50;;;;;;4153613;28;20120;-69
2022/05/29 04:35:42;;;;;;;23.02;9.93;;;33.60;96.40;;;;;;4171101;28;20051;-69
2022/05/29 04:37:49;;;;;;;18.48;9.65;;;33.70;96.30;;;;;;4157558;28;20053;-70
2022/05/29 04:39:54;;;;;;;24.60;10.27;;;33.90;96.00;;;;;;4165954;28;20093;-69
2022/05/29 04:42:02;;;;;;;18.45;10.07;;;34.10;95.50;;;;;;4141591;28;20054;-69
2022/05/29 04:44:10;;;;;;;21.48;9.93;;;34.00;95.50;;;;;;4144950;28;20080;-70
2022/05/29 04:46:17;;;;;;;20.52;10.65;;;34.00;95.70;;;;;;4155865;28;20049;-70
2022/05/29 04:48:22;;;;;;;22.17;10.23;;;34.00;95.90;;;;;;4141218;28;20041;-70
2022/05/29 04:50:28;;;;;;;22.52;9.93;;;34.10;95.50;;;;;;4159516;28;20052;-70
2022/05/29 04:52:35;;;;;;;30.60;12.30;;;34.00;95.50;;;;;;4157391;28;20447;-69
2022/05/29 04:54:41;;;;;;;20.88;10.10;;;33.90;95.70;;;;;;4157003;28;20049;-69
2022/05/29 04:56:49;;;;;;;21.98;12.18;;;33.80;95.60;;;;;;4173964;28;20040;-69
2022/05/29 04:58:54;;;;;;;23.67;12.88;;;33.90;95.20;;;;;;4162094;28;20038;-71
2022/05/29 05:01:05;;;;;;;21.80;11.95;;;34.10;95.40;;;;;;4143443;28;20029;-72
2022/05/29 05:03:11;;;;;;;25.40;9.85;;;34.20;94.90;;;;;;4166644;28;20045;-69
2022/05/29 05:05:15;;;;;;;16.50;9.30;;;34.40;94.30;;;;;;4160129;28;20440;-70
2022/05/29 05:07:23;;;;;;;16.27;9.13;;;34.50;94.60;;;;;;4159102;28;20132;-69
2022/05/29 05:09:30;;;;;;;23.15;9.80;;;34.60;94.10;;;;;;4161508;28;20048;-70
2022/05/29 05:11:36;;;;;;;22.67;10.65;;;34.70;93.80;;;;;;4161092;28;20053;-74
2022/05/29 05:13:44;;;;;;;25.58;10.73;;;34.80;93.50;;;;;;4172521;28;20073;-70
2022/05/29 05:15:50;;;;;;;20.50;10.15;;;34.50;93.10;;;;;;4160996;28;20393;-69
2022/05/29 05:17:55;;;;;;;21.30;9.90;;;34.30;93.80;;;;;;4176182;28;20053;-69
2022/05/29 05:20:05;;;;;;;22.25;9.77;;;34.40;94.20;;;;;;4172573;28;20046;-69
2022/05/29 05:22:12;;;;;;;17.17;9.73;;;34.50;94.40;;;;;;4163822;28;20124;-70
2022/05/29 05:24:18;;;;;;;21.15;9.20;;;34.50;94.30;;;;;;4164487;28;20536;-71
2022/05/29 05:26:28;;;;;;;17.70;9.30;;;34.60;94.00;;;;;;4153259;28;20046;-69
2022/05/29 05:28:33;;;;;;;21.60;10.00;;;34.60;93.80;;;;;;4161869;28;20520;-68
2022/05/29 05:30:38;;;;;;;22.83;8.98;;;34.60;93.30;;;;;;4161891;28;20131;-70
2022/05/29 05:32:47;;;;;;;24.27;9.60;;;34.80;93.00;;;;;;4120530;28;20050;-68
2022/05/29 05:35:02;;;;;;;24.67;9.85;;;34.90;93.10;;;;;;4155131;28;20697;-69
2022/05/29 05:37:11;;;;;;;21.13;9.20;;;35.00;93.70;;;;;;4128807;28;20042;-71
2022/05/29 05:39:20;;;;;;;16.48;9.55;;;35.30;93.80;;;;;;4099794;28;20070;-70
2022/05/29 05:41:24;;;;;;;22.42;9.13;;;35.30;93.80;;;;;;4166926;28;20053;-73
2022/05/29 05:43:31;;;;;;;20.95;10.15;;;35.30;93.60;;;;;;4146980;28;20605;-70
2022/05/29 05:45:42;;;;;;;17.02;8.70;;;35.10;93.70;;;;;;4146483;28;20073;-70
2022/05/29 05:47:50;;;;;;;18.45;8.60;;;35.00;93.40;;;;;;4145773;28;20040;-72
2022/05/29 05:49:56;;;;;;;17.67;9.07;;;34.80;93.90;;;;;;4127125;28;20086;-70
2022/05/29 05:52:03;;;;;;;22.38;9.48;;;34.70;93.70;;;;;;4157959;28;20563;-71
2022/05/29 05:54:12;;;;;;;20.83;9.32;;;34.60;94.10;;;;;;4126631;28;20144;-71
2022/05/29 05:56:18;;;;;;;19.15;9.65;;;34.60;94.30;;;;;;4145025;28;20116;-70
2022/05/29 05:58:23;;;;;;;21.10;9.35;;;34.70;93.50;;;;;;4138885;28;20054;-69
2022/05/29 06:00:31;;;;;;;17.10;8.63;;;34.90;92.80;;;;;;4128420;28;20458;-70
2022/05/29 06:02:36;;;;;;;17.35;8.65;;;35.10;92.70;;;;;;4128804;28;20054;-69
2022/05/29 06:04:43;;;;;;;20.95;8.27;;;35.20;92.30;;;;;;4143800;28;20097;-70
2022/05/29 06:06:50;;;;;;;20.65;9.07;;;35.00;92.30;;;;;;4130434;28;20038;-70
2022/05/29 06:08:56;;;;;;;18.42;8.50;;;34.90;92.30;;;;;;4144640;28;20053;-71
2022/05/29 06:11:03;;;;;;;17.80;8.43;;;34.80;92.70;;;;;;4183179;28;20052;-70
2022/05/29 06:13:10;;;;;;;18.08;7.68;;;34.60;92.40;;;;;;4178931;28;20483;-70
2022/05/29 06:15:18;;;;;;;16.30;8.07;;;34.50;92.50;;;;;;4163395;28;20049;-71
2022/05/29 06:17:28;;;;;;;22.05;8.23;;;34.40;92.80;;;;;;4162135;28;20077;-71
2022/05/29 06:19:35;;;;;;;18.42;8.35;;;34.40;92.90;;;;;;4141831;28;20440;-69
2022/05/29 06:21:41;;;;;;;22.65;7.70;;;34.40;93.10;;;;;;4159279;28;20068;-70
2022/05/29 06:23:50;;;;;;;18.73;9.05;;;34.50;93.00;;;;;;4161805;28;20045;-70
2022/05/29 06:26:00;;;;;;;18.55;8.75;;;34.50;92.90;;;;;;4159202;28;20087;-69
2022/05/29 06:28:09;;;;;;;17.70;7.95;;;34.40;93.10;;;;;;4166912;28;20063;-69
2022/05/29 06:30:19;;;;;;;20.55;8.68;;;34.40;93.10;;;;;;4112263;28;20129;-69
2022/05/29 06:32:24;;;;;;;18.52;8.80;;;34.30;93.20;;;;;;4132410;28;20460;-71
2022/05/29 06:34:30;;;;;;;17.95;9.02;;;34.20;93.40;;;;;;4174595;28;20071;-70
2022/05/29 06:36:37;;;;;;;20.58;8.65;;;34.20;93.60;;;;;;4168683;28;20447;-69
2022/05/29 06:38:45;;;;;;;20.63;9.73;;;34.20;93.60;;;;;;4145712;28;20062;-70
2022/05/29 06:40:50;;;;;;;25.40;10.32;;;34.20;93.70;;;;;;4157767;28;20493;-69
2022/05/29 06:42:57;;;;;;;17.20;8.88;;;34.20;94.00;;;;;;4160877;28;20136;-70
2022/05/29 06:45:04;;;;;;;19.95;9.55;;;34.10;94.10;;;;;;4156002;28;20120;-70
2022/05/29 06:47:09;;;;;;;16.23;8.23;;;34.10;94.30;;;;;;4162358;28;20053;-71
2022/05/29 06:49:17;;;;;;;18.92;9.13;;;34.00;94.40;;;;;;4161667;28;20049;-69
2022/05/29 06:51:25;;;;;;;18.73;9.40;;;34.00;94.60;;;;;;4157917;28;20502;-69
2022/05/29 06:53:29;;;;;;;19.63;9.63;;;33.90;94.50;;;;;;4157557;28;20041;-69
2022/05/29 06:55:34;;;;;;;19.58;9.57;;;33.70;94.70;;;;;;4155344;28;20058;-69
2022/05/29 06:57:41;;;;;;;18.20;9.15;;;33.60;94.90;;;;;;4178909;28;20095;-70
2022/05/29 07:09:01;;;;;;;18.60;9.77;;;33.30;95.40;;;;;;4130172;28;20708;-68
2022/05/29 07:11:12;;;;;;;22.50;9.30;;;33.30;95.00;;;;;;4160638;28;20045;-68
2022/05/29 07:13:17;;;;;;;23.60;9.27;;;33.30;94.90;;;;;;4159477;28;20464;-69
2022/05/29 07:15:25;;;;;;;15.88;9.00;;;33.20;95.10;;;;;;4160458;28;20046;-68
2022/05/29 07:17:36;;;;;;;32.60;15.43;;;33.10;95.00;;;;;;4159883;28;20057;-69
2022/05/29 07:19:43;;;;;;;25.63;11.70;;;32.90;94.90;;;;;;4159769;28;20049;-69
2022/05/29 07:21:54;;;;;;;22.25;11.40;;;32.50;95.40;;;;;;4157488;28;20176;-70
2022/05/29 07:24:02;;;;;;;27.67;14.10;;;32.10;96.40;;;;;;4139610;28;20052;-70
2022/05/29 07:26:07;;;;;;;33.30;17.00;;;31.70;97.40;;;;;;4155218;28;20652;-69
2022/05/29 07:28:15;;;;;;;21.90;11.00;;;31.40;98.10;;;;;;4156845;28;20574;-70
2022/05/29 07:30:20;;;;;;;20.35;10.05;;;31.00;98.40;;;;;;4156968;28;20175;-69
2022/05/29 07:32:25;;;;;;;27.63;15.50;;;30.50;99.20;;;;;;4155260;28;20140;-68
2022/05/29 07:34:31;;;;;;;28.77;14.70;;;30.60;99.60;;;;;;4154982;28;20049;-68
2022/05/29 07:36:38;;;;;;;22.20;10.55;;;30.50;99.80;;;;;;4157767;28;20049;-69
2022/05/29 07:38:42;;;;;;;17.05;9.82;;;30.00;99.90;;;;;;4139514;28;20057;-67
2022/05/29 07:40:50;;;;;;;20.75;9.93;;;30.10;99.90;;;;;;4155994;28;20051;-68
2022/05/29 07:45:15;;;;;;;12.35;7.93;;;30.50;99.90;;;;;;4140779;28;20076;-68
2022/05/29 07:47:23;;;;;;;16.83;7.32;;;30.40;99.10;;;;;;4158128;28;20471;-68
2022/05/29 07:49:30;;;;;;;17.45;7.72;;;30.20;99.20;;;;;;4142855;28;20065;-69
2022/05/29 07:51:35;;;;;;;11.07;6.10;;;30.10;98.80;;;;;;4142814;28;20049;-69
2022/05/29 07:53:42;;;;;;;8.50;5.53;;;30.10;98.50;;;;;;4131346;28;20085;-70
2022/05/29 07:55:48;;;;;;;10.20;4.40;;;30.10;98.80;;;;;;4154125;28;20479;-70
2022/05/29 07:57:54;;;;;;;8.00;3.80;;;30.00;98.60;;;;;;4158037;28;20766;-68
2022/05/29 08:00:01;;;;;;;9.20;4.30;;;29.80;98.50;;;;;;4155843;28;20041;-70
2022/05/29 08:02:16;;;;;;;8.48;4.97;;;29.50;98.70;;;;;;4155404;28;20087;-69
2022/05/29 08:04:20;;;;;;;9.93;5.10;;;29.20;98.70;;;;;;4156215;28;20041;-68
2022/05/29 08:06:27;;;;;;;5.75;3.10;;;29.10;99.10;;;;;;4147533;28;20113;-68
2022/05/29 08:08:35;;;;;;;6.28;3.20;;;29.10;98.90;;;;;;4146912;28;20049;-69
2022/05/29 08:10:40;;;;;;;7.68;3.50;;;29.10;98.90;;;;;;4140125;28;20140;-69
2022/05/29 08:12:47;;;;;;;7.90;4.43;;;29.10;99.00;;;;;;4147952;28;20041;-69
2022/05/29 08:14:55;;;;;;;9.80;5.10;;;29.10;99.20;;;;;;4153865;28;20073;-68
2022/05/29 08:17:00;;;;;;;9.63;4.85;;;29.20;99.30;;;;;;4152329;28;20041;-69
2022/05/29 08:19:08;;;;;;;8.75;4.55;;;29.20;99.60;;;;;;4139427;28;20160;-69
2022/05/29 08:21:15;;;;;;;8.52;4.35;;;29.50;99.30;;;;;;4149123;28;20065;-68
2022/05/29 08:23:27;;;;;;;7.93;4.18;;;29.80;98.80;;;;;;4153987;28;20099;-69
2022/05/29 08:32:48;;;;;;;8.82;3.95;;;29.50;99.60;;;;;;4124528;28;20129;-69
2022/05/29 08:34:56;;;;;;;11.45;4.32;;;29.70;99.60;;;;;;4121165;28;20453;-69
2022/05/29 08:37:01;;;;;;;7.63;3.70;;;29.50;99.20;;;;;;4137961;28;20132;-69
2022/05/29 08:39:08;;;;;;;6.28;4.38;;;29.40;99.50;;;;;;4133802;28;20448;-68
2022/05/29 08:41:18;;;;;;;7.70;4.82;;;29.50;99.80;;;;;;4136597;28;20397;-69
2022/05/29 08:43:32;;;;;;;10.30;6.53;;;29.60;99.90;;;;;;4152213;28;20054;-69
2022/05/29 08:45:40;;;;;;;25.65;17.50;;;29.40;99.90;;;;;;4138065;28;20042;-69
2022/05/29 08:47:46;;;;;;;89.05;71.18;;;29.60;99.90;;;;;;4136650;28;20096;-69
2022/05/29 08:49:54;;;;;;;29.50;22.92;;;29.80;99.80;;;;;;4136485;28;20649;-69
2022/05/29 08:52:16;;;;;;;7.68;4.07;;;29.70;99.90;;;;;;4137348;28;20092;-71
2022/05/29 08:54:38;;;;;;;6.10;3.30;;;29.20;99.90;;;;;;4108492;28;20055;-68
2022/05/29 08:57:14;;;;;;;10.10;3.40;;;29.30;99.90;;;;;;4132977;28;20059;-68
2022/05/29 08:59:45;;;;;;;8.75;4.00;;;29.20;99.90;;;;;;4123115;28;20445;-69
2022/05/29 09:02:02;;;;;;;8.65;3.05;;;29.20;99.90;;;;;;4149758;28;20053;-68
2022/05/29 09:04:31;;;;;;;6.28;3.38;;;29.20;99.90;;;;;;4167960;28;20095;-69
2022/05/29 09:06:47;;;;;;;13.20;6.70;;;29.10;99.90;;;;;;4144806;28;20083;-68
2022/05/29 09:09:17;;;;;;;10.07;4.75;;;28.80;99.90;;;;;;4163743;28;20067;-69
2022/05/29 09:11:47;;;;;;;11.80;5.40;;;28.60;99.90;;;;;;4158731;28;20523;-69
2022/05/29 09:13:57;;;;;;;11.23;5.57;;;28.80;99.90;;;;;;4141362;28;20053;-69
2022/05/29 09:16:13;;;;;;;8.82;5.65;;;29.10;99.90;;;;;;4137884;28;20050;-68
2022/05/29 09:18:29;;;;;;;8.77;5.20;;;29.20;99.90;;;;;;4154499;28;20045;-69
2022/05/29 09:21:08;;;;;;;9.52;6.03;;;29.30;99.90;;;;;;4150192;28;20041;-69
2022/05/29 09:23:23;;;;;;;9.85;6.25;;;29.30;99.90;;;;;;4158287;28;20045;-68
2022/05/29 09:25:33;;;;;;;9.55;6.15;;;29.20;99.90;;;;;;4158186;28;20104;-69
2022/05/29 09:27:44;;;;;;;10.85;7.22;;;29.30;99.90;;;;;;4141058;28;20274;-69
2022/05/29 09:29:52;;;;;;;13.68;7.75;;;29.40;99.90;;;;;;4158433;28;20088;-69
2022/05/29 09:31:59;;;;;;;11.75;6.97;;;29.40;99.90;;;;;;4150859;28;20053;-69
2022/05/29 09:34:08;;;;;;;13.77;8.32;;;29.30;99.90;;;;;;4156815;28;20080;-69
2022/05/29 09:36:41;;;;;;;13.93;8.07;;;29.30;99.90;;;;;;4157047;28;20056;-70
2022/05/29 09:39:01;;;;;;;13.65;7.78;;;29.30;99.90;;;;;;4157115;28;20097;-70
2022/05/29 09:41:29;;;;;;;14.70;8.13;;;29.30;99.90;;;;;;4157289;28;20076;-69
2022/05/29 09:43:36;;;;;;;18.67;9.10;;;29.20;99.90;;;;;;4160934;28;20049;-68
2022/05/29 09:45:41;;;;;;;17.95;9.82;;;29.20;99.90;;;;;;4140869;28;20104;-69
2022/05/29 09:50:10;;;;;;;14.70;10.57;;;29.30;99.90;;;;;;4149564;28;20120;-68
2022/05/29 09:52:24;;;;;;;17.33;9.98;;;29.30;99.90;;;;;;4132971;28;20059;-69
2022/05/29 09:54:51;;;;;;;19.13;11.40;;;29.20;99.90;;;;;;4140891;28;20046;-68
2022/05/29 09:57:14;;;;;;;17.63;11.43;;;29.20;99.90;;;;;;4153500;28;20460;-70
2022/05/29 09:59:21;;;;;;;21.45;11.10;;;29.20;99.90;;;;;;4151825;28;20053;-68
2022/05/29 10:01:42;;;;;;;13.70;10.10;;;29.20;99.90;;;;;;4154219;28;20052;-68
2022/05/29 10:03:57;;;;;;;15.05;9.63;;;29.20;99.90;;;;;;4152614;28;20056;-68
2022/05/29 10:06:12;;;;;;;15.80;9.27;;;29.20;99.90;;;;;;4139363;28;20070;-68
2022/05/29 10:08:31;;;;;;;12.98;9.30;;;29.10;99.90;;;;;;4151162;28;20519;-68
2022/05/29 10:10:36;;;;;;;16.38;10.65;;;29.10;99.90;;;;;;4155379;28;20049;-69
2022/05/29 10:12:45;;;;;;;16.30;12.57;;;28.90;99.90;;;;;;4157917;28;20135;-69
2022/05/29 10:14:52;;;;;;;18.33;14.18;;;28.70;99.90;;;;;;4159171;28;20080;-69
2022/05/29 10:16:57;;;;;;;16.63;10.85;;;28.70;99.90;;;;;;4157282;28;20115;-69
2022/05/29 10:19:03;;;;;;;15.40;10.60;;;28.70;99.90;;;;;;4155663;28;20049;-68
2022/05/29 10:21:23;;;;;;;14.27;10.02;;;28.50;99.90;;;;;;4157062;28;20049;-69
2022/05/29 10:23:32;;;;;;;18.38;10.00;;;28.60;99.90;;;;;;4157640;28;20045;-67
2022/05/29 10:25:53;;;;;;;15.85;9.57;;;28.60;99.90;;;;;;4165887;28;20046;-68
2022/05/29 10:28:08;;;;;;;14.57;10.10;;;28.70;99.90;;;;;;4158267;28;20049;-68
2022/05/29 10:30:25;;;;;;;17.40;10.43;;;28.50;99.90;;;;;;4125660;28;20521;-68
2022/05/29 10:32:31;;;;;;;16.98;10.13;;;28.70;99.90;;;;;;4170463;28;20610;-70
2022/05/29 10:34:41;;;;;;;19.08;10.73;;;28.40;99.90;;;;;;4172822;28;20620;-69
2022/05/29 10:36:47;;;;;;;14.60;9.18;;;28.40;99.90;;;;;;4156855;28;20054;-69
2022/05/29 10:38:52;;;;;;;15.38;9.32;;;28.30;99.90;;;;;;4146457;28;20073;-69
2022/05/29 10:41:00;;;;;;;13.43;8.40;;;28.20;99.90;;;;;;4136776;28;20049;-68
2022/05/29 10:43:05;;;;;;;13.98;8.90;;;28.10;99.90;;;;;;4132422;28;20048;-68
2022/05/29 10:45:40;;;;;;;12.13;7.97;;;28.00;99.90;;;;;;4119371;28;20066;-68
2022/05/29 10:48:06;;;;;;;14.88;7.72;;;27.90;99.90;;;;;;4149419;28;20049;-68
2022/05/29 10:50:25;;;;;;;14.30;7.70;;;27.80;99.90;;;;;;4157941;28;20049;-67
2022/05/29 10:52:39;;;;;;;12.55;9.20;;;28.10;99.90;;;;;;4159793;28;20049;-69
2022/05/29 10:54:57;;;;;;;16.02;9.00;;;28.20;99.90;;;;;;4159564;28;20520;-69
2022/05/29 10:57:11;;;;;;;12.35;8.57;;;28.00;99.90;;;;;;4154880;28;20219;-69
2022/05/29 10:59:40;;;;;;;12.65;8.70;;;28.20;99.90;;;;;;4160002;28;20431;-68
2022/05/29 11:04:48;;;;;;;13.27;8.25;;;28.40;99.90;;;;;;4166395;28;20046;-68
2022/05/29 11:07:08;;;;;;;15.27;9.20;;;28.40;99.90;;;;;;4142610;28;20041;-68
2022/05/29 11:09:22;;;;;;;14.50;9.35;;;28.30;99.90;;;;;;4161066;28;20045;-68
2022/05/29 11:11:39;;;;;;;15.25;9.43;;;27.90;99.90;;;;;;4160287;28;20044;-69
2022/05/29 11:13:51;;;;;;;14.40;9.45;;;28.00;99.90;;;;;;4160281;28;20060;-69
2022/05/29 11:16:08;;;;;;;15.32;9.60;;;27.90;99.90;;;;;;4174316;28;20103;-69
2022/05/29 11:18:37;;;;;;;14.88;9.85;;;27.80;99.90;;;;;;4172662;28;20067;-68
2022/05/29 11:20:47;;;;;;;16.60;10.25;;;27.80;99.90;;;;;;4174766;28;20111;-70
2022/05/29 11:23:04;;;;;;;14.27;9.63;;;27.90;99.90;;;;;;4162995;28;20049;-71
2022/05/29 11:25:21;;;;;;;18.48;11.55;;;27.80;99.90;;;;;;4146375;28;20072;-71
2022/05/29 11:27:43;;;;;;;16.85;9.65;;;27.80;99.90;;;;;;4167402;28;20080;-70
2022/05/29 11:30:00;;;;;;;14.73;10.25;;;27.60;99.90;;;;;;4162518;28;20080;-70
2022/05/29 11:32:11;;;;;;;22.33;10.57;;;27.60;99.90;;;;;;4167595;28;20539;-71
2022/05/29 11:34:34;;;;;;;18.73;10.63;;;27.80;99.90;;;;;;4126748;28;20632;-70
2022/05/29 11:36:52;;;;;;;20.80;11.40;;;27.80;99.90;;;;;;4157277;28;20136;-69
2022/05/29 11:39:08;;;;;;;22.17;13.05;;;27.80;99.90;;;;;;4158654;28;20049;-70
2022/05/29 11:41:38;;;;;;;18.63;11.70;;;27.80;99.90;;;;;;4158343;28;20045;-70
2022/05/29 11:43:47;;;;;;;16.67;11.65;;;27.80;99.90;;;;;;4143146;28;20042;-70